createdAt,value
2023-05-16T00:00:02.502Z,503.00
2023-05-16T00:01:02.534Z,507.00
2023-05-16T00:02:02.599Z,500.00
2023-05-16T00:03:02.642Z,505.00
2023-05-16T00:04:02.657Z,508.00
2023-05-16T00:05:02.641Z,506.00
2023-05-16T00:06:02.671Z,512.00
2023-05-16T00:07:02.696Z,507.00
2023-05-16T00:08:02.724Z,504.00
2023-05-16T00:09:02.764Z,505.00
2023-05-16T00:10:02.810Z,505.00
2023-05-16T00:11:02.826Z,509.00
2023-05-16T00:12:02.855Z,506.00
2023-05-16T00:13:02.890Z,505.00
2023-05-16T00:14:02.933Z,507.00
2023-05-16T00:15:02.951Z,500.00
2023-05-16T00:16:02.992Z,508.00
2023-05-16T00:17:03.093Z,505.00
2023-05-16T00:18:03.100Z,512.00
2023-05-16T00:19:03.061Z,510.00
2023-05-16T00:20:03.082Z,508.00
2023-05-16T00:21:03.104Z,507.00
2023-05-16T00:22:03.137Z,508.00
2023-05-16T00:23:03.169Z,509.00
2023-05-16T00:24:03.183Z,504.00
2023-05-16T00:25:03.216Z,501.00
2023-05-16T00:26:03.233Z,509.00
2023-05-16T00:27:03.266Z,505.00
2023-05-16T00:28:03.296Z,506.00
2023-05-16T00:29:03.324Z,505.00
2023-05-16T00:30:03.339Z,505.00
2023-05-16T00:31:03.381Z,505.00
2023-05-16T00:32:03.427Z,503.00
2023-05-16T00:33:03.472Z,505.00
2023-05-16T00:34:03.484Z,501.00
2023-05-16T00:35:03.473Z,507.00
2023-05-16T00:36:03.547Z,506.00
2023-05-16T00:37:03.537Z,505.00
2023-05-16T00:38:03.590Z,509.00
2023-05-16T00:39:03.614Z,511.00
2023-05-16T00:40:03.683Z,503.00
2023-05-16T00:41:03.695Z,508.00
2023-05-16T00:42:03.720Z,507.00
2023-05-16T00:43:03.715Z,505.00
2023-05-16T00:44:03.763Z,503.00
2023-05-16T00:45:03.795Z,508.00
2023-05-16T00:46:03.869Z,507.00
2023-05-16T00:47:03.834Z,505.00
2023-05-16T00:48:03.939Z,510.00
2023-05-16T00:49:03.896Z,501.00
2023-05-16T00:50:03.936Z,509.00
2023-05-16T00:51:03.982Z,500.00
2023-05-16T00:52:03.977Z,510.00
2023-05-16T00:53:04.018Z,505.00
2023-05-16T00:54:04.057Z,508.00
2023-05-16T00:55:04.073Z,506.00
2023-05-16T00:56:04.110Z,502.00
2023-05-16T00:57:04.096Z,506.00
2023-05-16T00:58:04.121Z,510.00
2023-05-16T00:59:04.254Z,508.00
2023-05-16T01:00:04.150Z,507.00
2023-05-16T01:01:04.347Z,507.00
2023-05-16T01:02:04.297Z,512.00
2023-05-16T01:03:04.340Z,505.00
2023-05-16T01:04:04.357Z,506.00
2023-05-16T01:05:04.264Z,506.00
2023-05-16T01:06:04.302Z,507.00
2023-05-16T01:07:04.328Z,506.00
2023-05-16T01:08:04.366Z,511.00
2023-05-16T01:09:04.388Z,502.00
2023-05-16T01:10:04.438Z,507.00
2023-05-16T01:11:04.467Z,507.00
2023-05-16T01:12:04.498Z,503.00
2023-05-16T01:13:04.528Z,506.00
2023-05-16T01:14:04.551Z,505.00
2023-05-16T01:15:04.597Z,508.00
2023-05-16T01:16:04.741Z,508.00
2023-05-16T01:17:04.659Z,505.00
2023-05-16T01:18:04.852Z,504.00
2023-05-16T01:19:04.771Z,507.00
2023-05-16T01:20:04.758Z,507.00
2023-05-16T01:21:04.800Z,506.00
2023-05-16T01:22:04.804Z,506.00
2023-05-16T01:23:04.835Z,508.00
2023-05-16T01:24:04.895Z,508.00
2023-05-16T01:25:04.917Z,506.00
2023-05-16T01:26:04.936Z,501.00
2023-05-16T01:27:04.982Z,507.00
2023-05-16T01:28:04.995Z,508.00
2023-05-16T01:29:05.025Z,505.00
2023-05-16T01:30:05.053Z,509.00
2023-05-16T01:31:05.223Z,506.00
2023-05-16T01:32:05.147Z,505.00
2023-05-16T01:33:05.267Z,510.00
2023-05-16T01:34:05.164Z,506.00
2023-05-16T01:35:05.200Z,503.00
2023-05-16T01:36:05.226Z,505.00
2023-05-16T01:37:05.272Z,507.00
2023-05-16T01:38:05.300Z,505.00
2023-05-16T01:39:05.332Z,503.00
2023-05-16T01:40:05.369Z,506.00
2023-05-16T01:41:05.409Z,508.00
2023-05-16T01:42:05.438Z,509.00
2023-05-16T01:43:05.463Z,506.00
2023-05-16T01:44:05.508Z,506.00
2023-05-16T01:45:05.524Z,510.00
2023-05-16T01:46:05.579Z,502.00
2023-05-16T01:47:05.949Z,506.00
2023-05-16T01:48:05.686Z,508.00
2023-05-16T01:49:05.650Z,506.00
2023-05-16T01:50:05.689Z,507.00
2023-05-16T01:51:05.767Z,507.00
2023-05-16T01:52:05.754Z,507.00
2023-05-16T01:53:05.791Z,507.00
2023-05-16T01:54:05.879Z,508.00
2023-05-16T01:55:05.867Z,511.00
2023-05-16T01:56:05.903Z,508.00
2023-05-16T01:57:05.944Z,506.00
2023-05-16T01:58:05.981Z,508.00
2023-05-16T01:59:06.002Z,510.00
2023-05-16T02:00:06.040Z,507.00
2023-05-16T02:01:06.102Z,508.00
2023-05-16T02:02:06.126Z,510.00
2023-05-16T02:03:06.194Z,507.00
2023-05-16T02:04:06.332Z,508.00
2023-05-16T02:05:06.197Z,505.00
2023-05-16T02:06:06.245Z,501.00
2023-05-16T02:07:06.273Z,506.00
2023-05-16T02:08:06.311Z,504.00
2023-05-16T02:09:06.342Z,506.00
2023-05-16T02:10:06.385Z,506.00
2023-05-16T02:11:06.405Z,505.00
2023-05-16T02:12:06.437Z,507.00
2023-05-16T02:13:06.483Z,509.00
2023-05-16T02:14:06.488Z,507.00
2023-05-16T02:15:06.517Z,507.00
2023-05-16T02:16:06.621Z,504.00
2023-05-16T02:17:06.609Z,507.00
2023-05-16T02:18:06.691Z,505.00
2023-05-16T02:19:06.716Z,506.00
2023-05-16T02:20:06.678Z,511.00
2023-05-16T02:21:06.695Z,510.00
2023-05-16T02:22:06.737Z,506.00
2023-05-16T02:23:06.745Z,502.00
2023-05-16T02:24:06.764Z,507.00
2023-05-16T02:25:06.810Z,507.00
2023-05-16T02:26:06.837Z,510.00
2023-05-16T02:27:06.878Z,508.00
2023-05-16T02:28:06.912Z,506.00
2023-05-16T02:29:06.916Z,501.00
2023-05-16T02:30:06.948Z,503.00
2023-05-16T02:31:07.023Z,501.00
2023-05-16T02:32:07.018Z,508.00
2023-05-16T02:33:07.210Z,504.00
2023-05-16T02:34:07.092Z,509.00
2023-05-16T02:35:07.092Z,503.00
2023-05-16T02:36:07.125Z,503.00
2023-05-16T02:37:07.163Z,507.00
2023-05-16T02:38:07.239Z,503.00
2023-05-16T02:39:07.224Z,504.00
2023-05-16T02:40:07.269Z,503.00
2023-05-16T02:41:07.302Z,505.00
2023-05-16T02:42:07.357Z,501.00
2023-05-16T02:43:07.358Z,501.00
2023-05-16T02:44:07.422Z,503.00
2023-05-16T02:45:07.453Z,510.00
2023-05-16T02:46:07.492Z,507.00
2023-05-16T02:47:07.484Z,506.00
2023-05-16T02:48:07.554Z,509.00
2023-05-16T02:49:07.553Z,505.00
2023-05-16T02:50:07.590Z,508.00
2023-05-16T02:51:07.654Z,508.00
2023-05-16T02:52:07.665Z,506.00
2023-05-16T02:53:07.693Z,510.00
2023-05-16T02:54:07.739Z,507.00
2023-05-16T02:56:07.807Z,515.00
2023-05-16T02:57:07.762Z,508.00
2023-05-16T02:58:07.740Z,509.00
2023-05-16T02:59:07.735Z,515.00
2023-05-16T03:00:07.737Z,509.00
2023-05-16T03:01:07.771Z,510.00
2023-05-16T03:02:07.944Z,510.00
2023-05-16T03:03:07.893Z,507.00
2023-05-16T03:04:07.742Z,507.00
2023-05-16T03:05:07.710Z,508.00
2023-05-16T03:06:07.724Z,510.00
2023-05-16T03:07:07.697Z,503.00
2023-05-16T03:08:07.684Z,509.00
2023-05-16T03:09:07.683Z,510.00
2023-05-16T03:10:07.685Z,507.00
2023-05-16T03:11:07.663Z,509.00
2023-05-16T03:12:07.652Z,508.00
2023-05-16T03:13:07.665Z,507.00
2023-05-16T03:14:07.646Z,508.00
2023-05-16T03:15:07.649Z,505.00
2023-05-16T03:16:07.670Z,512.00
2023-05-16T03:17:07.627Z,502.00
2023-05-16T03:18:07.766Z,507.00
2023-05-16T03:19:07.746Z,509.00
2023-05-16T03:20:07.616Z,505.00
2023-05-16T03:21:07.602Z,505.00
2023-05-16T03:22:07.604Z,504.00
2023-05-16T03:23:07.574Z,503.00
2023-05-16T03:24:07.601Z,508.00
2023-05-16T03:25:07.585Z,510.00
2023-05-16T03:26:07.613Z,505.00
2023-05-16T03:27:07.553Z,509.00
2023-05-16T03:28:07.600Z,506.00
2023-05-16T03:29:07.546Z,501.00
2023-05-16T03:30:07.582Z,509.00
2023-05-16T03:31:07.558Z,504.00
2023-05-16T03:32:07.727Z,503.00
2023-05-16T03:33:07.575Z,512.00
2023-05-16T03:34:07.530Z,505.00
2023-05-16T03:35:07.558Z,503.00
2023-05-16T03:36:07.515Z,509.00
2023-05-16T03:37:07.494Z,509.00
2023-05-16T03:38:07.502Z,511.00
2023-05-16T03:39:07.482Z,506.00
2023-05-16T03:40:07.503Z,513.00
2023-05-16T03:41:07.478Z,509.00
2023-05-16T03:42:07.502Z,507.00
2023-05-16T03:43:07.472Z,508.00
2023-05-16T03:44:07.459Z,508.00
2023-05-16T03:45:07.440Z,509.00
2023-05-16T03:46:07.535Z,507.00
2023-05-16T03:47:07.430Z,506.00
2023-05-16T03:48:07.486Z,504.00
2023-05-16T03:49:07.435Z,509.00
2023-05-16T03:50:07.452Z,502.00
2023-05-16T03:51:07.483Z,509.00
2023-05-16T03:52:07.513Z,505.00
2023-05-16T03:53:07.584Z,501.00
2023-05-16T03:54:07.644Z,505.00
2023-05-16T03:55:07.644Z,507.00
2023-05-16T03:56:07.668Z,507.00
2023-05-16T03:57:07.695Z,502.00
2023-05-16T03:58:07.732Z,509.00
2023-05-16T03:59:07.787Z,508.00
2023-05-16T04:00:07.842Z,507.00
2023-05-16T04:01:07.826Z,512.00
2023-05-16T04:02:07.904Z,509.00
2023-05-16T04:03:07.984Z,509.00
2023-05-16T04:04:07.918Z,507.00
2023-05-16T04:05:08.004Z,508.00
2023-05-16T04:06:08.060Z,504.00
2023-05-16T04:07:08.020Z,505.00
2023-05-16T04:08:08.052Z,506.00
2023-05-16T04:09:08.083Z,507.00
2023-05-16T04:10:08.103Z,507.00
2023-05-16T04:11:08.277Z,504.00
2023-05-16T04:12:08.177Z,505.00
2023-05-16T04:13:08.212Z,502.00
2023-05-16T04:14:08.288Z,506.00
2023-05-16T04:15:08.276Z,505.00
2023-05-16T04:16:08.369Z,502.00
2023-05-16T04:17:08.547Z,510.00
2023-05-16T04:18:08.439Z,509.00
2023-05-16T04:19:08.484Z,508.00
2023-05-16T04:20:08.528Z,504.00
2023-05-16T04:21:08.543Z,501.00
2023-05-16T04:22:08.572Z,504.00
2023-05-16T04:23:08.623Z,504.00
2023-05-16T04:24:08.665Z,507.00
2023-05-16T04:25:08.721Z,509.00
2023-05-16T04:26:08.754Z,502.00
2023-05-16T04:27:08.812Z,504.00
2023-05-16T04:28:08.841Z,504.00
2023-05-16T04:29:08.919Z,510.00
2023-05-16T04:30:08.955Z,507.00
2023-05-16T04:31:09.058Z,508.00
2023-05-16T04:32:09.022Z,514.00
2023-05-16T04:33:09.152Z,509.00
2023-05-16T04:34:09.108Z,508.00
2023-05-16T04:35:09.203Z,508.00
2023-05-16T04:36:09.180Z,503.00
2023-05-16T04:37:09.243Z,511.00
2023-05-16T04:38:09.279Z,503.00
2023-05-16T04:39:09.319Z,508.00
2023-05-16T04:40:09.356Z,507.00
2023-05-16T04:41:09.368Z,506.00
2023-05-16T04:42:09.431Z,503.00
2023-05-16T04:43:09.462Z,512.00
2023-05-16T04:44:09.485Z,515.00
2023-05-16T04:45:09.523Z,508.00
2023-05-16T04:46:09.614Z,506.00
2023-05-16T04:47:09.624Z,504.00
2023-05-16T04:48:09.675Z,508.00
2023-05-16T04:49:09.678Z,504.00
2023-05-16T04:50:09.731Z,507.00
2023-05-16T04:51:09.768Z,505.00
2023-05-16T04:52:09.796Z,505.00
2023-05-16T04:53:09.823Z,506.00
2023-05-16T04:54:09.869Z,507.00
2023-05-16T04:55:09.911Z,506.00
2023-05-16T04:56:09.954Z,505.00
2023-05-16T04:57:09.976Z,506.00
2023-05-16T04:58:10.037Z,505.00
2023-05-16T04:59:10.051Z,502.00
2023-05-16T05:00:10.094Z,506.00
2023-05-16T05:01:10.168Z,505.00
2023-05-16T05:02:10.302Z,509.00
2023-05-16T05:03:10.233Z,510.00
2023-05-16T05:04:10.288Z,506.00
2023-05-16T05:05:10.421Z,510.00
2023-05-16T05:06:10.358Z,512.00
2023-05-16T05:07:10.413Z,514.00
2023-05-16T05:08:10.455Z,507.00
2023-05-16T05:09:10.483Z,509.00
2023-05-16T05:10:10.519Z,512.00
2023-05-16T05:11:10.554Z,504.00
2023-05-16T05:12:10.579Z,511.00
2023-05-16T05:13:10.618Z,511.00
2023-05-16T05:14:10.653Z,506.00
2023-05-16T05:15:10.702Z,507.00
2023-05-16T05:16:10.759Z,508.00
2023-05-16T05:17:10.807Z,505.00
2023-05-16T05:18:10.991Z,504.00
2023-05-16T05:19:10.875Z,504.00
2023-05-16T05:20:10.882Z,505.00
2023-05-16T05:21:10.978Z,505.00
2023-05-16T05:22:10.976Z,507.00
2023-05-16T05:23:11.008Z,506.00
2023-05-16T05:24:11.036Z,504.00
2023-05-16T05:25:11.091Z,504.00
2023-05-16T05:26:11.127Z,501.00
2023-05-16T05:27:11.182Z,507.00
2023-05-16T05:28:11.195Z,510.00
2023-05-16T05:29:11.254Z,509.00
2023-05-16T05:30:11.368Z,508.00
2023-05-16T05:31:11.377Z,512.00
2023-05-16T05:32:11.469Z,525.00
2023-05-16T05:33:11.667Z,645.00
2023-05-16T05:34:11.452Z,706.00
2023-05-16T05:35:11.503Z,793.00
2023-05-16T05:36:11.552Z,788.00
2023-05-16T05:37:11.585Z,884.00
2023-05-16T05:38:11.716Z,906.00
2023-05-16T05:39:11.679Z,964.00
2023-05-16T05:40:11.771Z,1038.00
2023-05-16T05:41:11.796Z,1099.00
2023-05-16T05:42:11.847Z,1077.00
2023-05-16T05:43:11.927Z,1109.00
2023-05-16T05:44:11.985Z,1072.00
2023-05-16T05:45:12.025Z,1011.00
2023-05-16T05:46:12.156Z,1040.00
2023-05-16T05:47:12.136Z,1104.00
2023-05-16T05:48:12.307Z,1071.00
2023-05-16T05:49:12.299Z,1007.00
2023-05-16T05:50:13.109Z,955.00
2023-05-16T05:51:12.418Z,956.00
2023-05-16T05:52:12.435Z,930.00
2023-05-16T05:53:12.485Z,881.00
2023-05-16T05:54:12.651Z,873.00
2023-05-16T05:55:12.613Z,846.00
2023-05-16T05:56:12.665Z,855.00
2023-05-16T05:57:12.707Z,852.00
2023-05-16T05:58:12.919Z,829.00
2023-05-16T05:59:12.946Z,823.00
2023-05-16T06:00:12.979Z,765.00
2023-05-16T06:01:13.025Z,748.00
2023-05-16T06:02:13.046Z,738.00
2023-05-16T06:03:13.139Z,725.00
2023-05-16T06:04:13.099Z,691.00
2023-05-16T06:05:13.149Z,734.00
2023-05-16T06:06:13.179Z,737.00
2023-05-16T06:07:13.241Z,735.00
2023-05-16T06:08:13.273Z,684.00
2023-05-16T06:09:13.326Z,681.00
2023-05-16T06:10:13.371Z,676.00
2023-05-16T06:11:13.448Z,685.00
2023-05-16T06:12:13.465Z,668.00
2023-05-16T06:13:13.529Z,671.00
2023-05-16T06:14:13.586Z,657.00
2023-05-16T06:15:13.628Z,657.00
2023-05-16T06:16:13.810Z,654.00
2023-05-16T06:17:13.788Z,657.00
2023-05-16T06:18:13.783Z,661.00
2023-05-16T06:19:13.853Z,656.00
2023-05-16T06:20:13.853Z,656.00
2023-05-16T06:21:13.986Z,658.00
2023-05-16T06:22:13.986Z,648.00
2023-05-16T06:23:14.076Z,770.00
2023-05-16T06:24:14.097Z,717.00
2023-05-16T06:25:14.248Z,668.00
2023-05-16T06:26:14.385Z,653.00
2023-05-16T06:27:14.347Z,648.00
2023-05-16T06:28:14.405Z,643.00
2023-05-16T06:29:14.420Z,638.00
2023-05-16T06:30:14.490Z,636.00
2023-05-16T06:31:14.569Z,637.00
2023-05-16T06:32:14.582Z,650.00
2023-05-16T06:33:14.642Z,659.00
2023-05-16T06:34:14.699Z,691.00
2023-05-16T06:35:14.765Z,683.00
2023-05-16T06:36:14.846Z,709.00
2023-05-16T06:37:14.865Z,772.00
2023-05-16T06:38:14.975Z,851.00
2023-05-16T06:39:14.969Z,847.00
2023-05-16T06:40:15.054Z,872.00
2023-05-16T06:41:15.543Z,901.00
2023-05-16T06:42:15.112Z,910.00
2023-05-16T06:43:15.182Z,922.00
2023-05-16T06:44:15.237Z,898.00
2023-05-16T06:45:15.307Z,886.00
2023-05-16T06:46:15.380Z,859.00
2023-05-16T06:47:15.362Z,844.00
2023-05-16T06:48:15.536Z,850.00
2023-05-16T06:49:15.509Z,843.00
2023-05-16T06:50:15.530Z,831.00
2023-05-16T06:51:16.017Z,844.00
2023-05-16T06:52:15.644Z,838.00
2023-05-16T06:53:15.702Z,825.00
2023-05-16T06:54:15.781Z,850.00
2023-05-16T06:55:15.796Z,837.00
2023-05-16T06:56:15.849Z,808.00
2023-05-16T06:57:15.905Z,841.00
2023-05-16T06:58:15.947Z,850.00
2023-05-16T06:59:16.020Z,841.00
2023-05-16T07:00:16.050Z,838.00
2023-05-16T07:01:16.122Z,847.00
2023-05-16T07:02:16.221Z,852.00
2023-05-16T07:03:16.298Z,828.00
2023-05-16T07:04:16.266Z,814.00
2023-05-16T07:05:16.363Z,796.00
2023-05-16T07:06:16.339Z,775.00
2023-05-16T07:07:16.411Z,777.00
2023-05-16T07:08:16.436Z,763.00
2023-05-16T07:09:16.554Z,757.00
2023-05-16T07:10:16.541Z,753.00
2023-05-16T07:11:16.566Z,757.00
2023-05-16T07:12:16.630Z,757.00
2023-05-16T07:13:16.695Z,758.00
2023-05-16T07:14:16.698Z,750.00
2023-05-16T07:15:16.740Z,747.00
2023-05-16T07:16:16.822Z,748.00
2023-05-16T07:17:16.821Z,743.00
2023-05-16T07:18:16.920Z,716.00
2023-05-16T07:19:16.974Z,766.00
2023-05-16T07:20:16.945Z,758.00
2023-05-16T07:21:16.995Z,742.00
2023-05-16T07:22:17.020Z,727.00
2023-05-16T07:23:17.102Z,707.00
2023-05-16T07:24:17.125Z,714.00
2023-05-16T07:25:17.175Z,705.00
2023-05-16T07:26:17.531Z,702.00
2023-05-16T07:27:17.252Z,714.00
2023-05-16T07:28:17.300Z,702.00
2023-05-16T07:29:17.355Z,717.00
2023-05-16T07:30:17.429Z,723.00
2023-05-16T07:31:17.470Z,763.00
2023-05-16T07:32:17.493Z,803.00
2023-05-16T07:33:17.544Z,876.00
2023-05-16T07:34:17.578Z,3051.00
2023-05-16T07:35:17.646Z,1845.00
2023-05-16T07:36:17.952Z,1587.00
2023-05-16T07:37:17.735Z,1483.00
2023-05-16T07:38:17.776Z,1432.00
2023-05-16T07:39:17.802Z,1405.00
2023-05-16T07:40:17.854Z,1396.00
2023-05-16T07:41:17.909Z,1351.00
2023-05-16T07:42:17.930Z,1319.00
2023-05-16T07:43:17.995Z,1310.00
2023-05-16T07:44:18.068Z,1289.00
2023-05-16T07:45:18.072Z,1269.00
2023-05-16T07:46:18.549Z,1232.00
2023-05-16T07:47:18.204Z,1206.00
2023-05-16T07:48:18.255Z,1188.00
2023-05-16T07:49:18.379Z,1198.00
2023-05-16T07:50:18.367Z,1191.00
2023-05-16T07:51:18.406Z,1174.00
2023-05-16T07:52:18.482Z,1166.00
2023-05-16T07:53:18.517Z,1140.00
2023-05-16T07:54:18.635Z,1140.00
2023-05-16T07:55:18.630Z,1125.00
2023-05-16T07:56:18.706Z,1116.00
2023-05-16T07:57:18.748Z,1119.00
2023-05-16T07:58:18.791Z,1145.00
2023-05-16T07:59:18.903Z,1136.00
2023-05-16T08:00:18.901Z,1120.00
2023-05-16T08:01:18.997Z,1117.00
2023-05-16T08:02:19.061Z,1102.00
2023-05-16T08:03:19.156Z,1074.00
2023-05-16T08:04:19.110Z,1089.00
2023-05-16T08:05:19.225Z,1086.00
2023-05-16T08:06:19.226Z,1069.00
2023-05-16T08:07:19.292Z,1053.00
2023-05-16T08:08:19.371Z,1045.00
2023-05-16T08:09:19.405Z,1034.00
2023-05-16T08:10:19.469Z,1009.00
2023-05-16T08:11:19.615Z,1014.00
2023-05-16T08:12:19.596Z,995.00
2023-05-16T08:13:19.655Z,993.00
2023-05-16T08:14:19.695Z,1020.00
2023-05-16T08:15:19.755Z,1021.00
2023-05-16T08:16:19.896Z,1030.00
2023-05-16T08:17:19.911Z,1026.00
2023-05-16T08:18:22.281Z,1033.00
2023-05-16T08:19:20.033Z,1011.00
2023-05-16T08:20:19.984Z,1005.00
2023-05-16T08:21:19.957Z,1002.00
2023-05-16T08:22:19.948Z,976.00
2023-05-16T08:23:19.916Z,979.00
2023-05-16T08:24:19.941Z,1003.00
2023-05-16T08:25:19.921Z,1009.00
2023-05-16T08:26:19.915Z,1043.00
2023-05-16T08:27:19.893Z,1088.00
2023-05-16T08:28:19.864Z,1038.00
2023-05-16T08:29:19.874Z,1010.00
2023-05-16T08:30:19.866Z,1017.00
2023-05-16T08:31:20.072Z,1041.00
2023-05-16T08:32:19.864Z,1066.00
2023-05-16T08:33:20.619Z,1080.00
2023-05-16T08:34:19.874Z,1071.00
2023-05-16T08:35:19.856Z,1071.00
2023-05-16T08:36:19.858Z,1063.00
2023-05-16T08:37:19.808Z,1052.00
2023-05-16T08:38:19.817Z,1002.00
2023-05-16T08:39:19.824Z,1049.00
2023-05-16T08:40:19.809Z,1068.00
2023-05-16T08:41:20.042Z,1075.00
2023-05-16T08:42:19.803Z,1087.00
2023-05-16T08:43:20.591Z,1099.00
2023-05-16T08:44:19.802Z,1059.00
2023-05-16T08:45:19.764Z,1046.00
2023-05-16T08:46:19.775Z,1032.00
2023-05-16T08:47:19.814Z,1016.00
2023-05-16T08:48:19.873Z,1014.00
2023-05-16T08:49:19.735Z,988.00
2023-05-16T08:50:19.733Z,970.00
2023-05-16T08:51:19.827Z,951.00
2023-05-16T08:52:19.749Z,964.00
2023-05-16T08:53:19.709Z,952.00
2023-05-16T08:54:19.930Z,967.00
2023-05-16T08:55:19.699Z,975.00
2023-05-16T08:56:19.703Z,972.00
2023-05-16T08:57:19.759Z,947.00
2023-05-16T08:58:19.814Z,946.00
2023-05-16T08:59:19.860Z,943.00
2023-05-16T09:00:19.947Z,946.00
2023-05-16T09:01:20.089Z,930.00
2023-05-16T09:02:20.034Z,912.00
2023-05-16T09:03:20.159Z,892.00
2023-05-16T09:04:20.186Z,888.00
2023-05-16T09:05:20.162Z,849.00
2023-05-16T09:06:20.544Z,834.00
2023-05-16T09:07:20.262Z,818.00
2023-05-16T09:08:20.334Z,824.00
2023-05-16T09:09:20.360Z,781.00
2023-05-16T09:10:20.448Z,740.00
2023-05-16T09:11:20.480Z,652.00
2023-05-16T09:12:20.528Z,641.00
2023-05-16T09:13:20.568Z,618.00
2023-05-16T09:14:20.618Z,614.00
2023-05-16T09:15:20.702Z,602.00
2023-05-16T09:16:20.781Z,580.00
2023-05-16T09:17:35.958Z,579.00
2023-05-16T09:18:21.838Z,560.00
2023-05-16T09:19:20.820Z,527.00
2023-05-16T09:20:20.868Z,522.00
2023-05-16T09:21:20.788Z,551.00
2023-05-16T09:22:20.767Z,551.00
2023-05-16T09:23:20.739Z,509.00
2023-05-16T09:24:20.744Z,500.00
2023-05-16T09:25:29.341Z,500.00
2023-05-16T09:26:21.750Z,487.00
2023-05-16T09:27:20.758Z,494.00
2023-05-16T09:28:20.719Z,457.00
2023-05-16T09:29:20.730Z,464.00
2023-05-16T09:30:20.720Z,482.00
2023-05-16T09:31:20.782Z,493.00
2023-05-16T09:32:21.555Z,502.00
2023-05-16T09:33:20.705Z,542.00
2023-05-16T09:34:20.668Z,549.00
2023-05-16T09:35:35.159Z,561.00
2023-05-16T09:36:21.666Z,562.00
2023-05-16T09:37:20.776Z,562.00
2023-05-16T09:38:20.700Z,566.00
2023-05-16T09:39:20.657Z,579.00
2023-05-16T09:40:20.656Z,575.00
2023-05-16T09:41:21.062Z,513.00
2023-05-16T09:42:20.612Z,497.00
2023-05-16T09:43:20.605Z,490.00
2023-05-16T09:44:20.608Z,505.00
2023-05-16T09:45:20.680Z,492.00
2023-05-16T09:46:21.103Z,500.00
2023-05-16T09:47:20.778Z,503.00
2023-05-16T09:48:20.813Z,503.00
2023-05-16T09:49:20.898Z,500.00
2023-05-16T09:50:20.931Z,525.00
2023-05-16T09:51:20.984Z,535.00
2023-05-16T09:52:21.035Z,550.00
2023-05-16T09:53:21.181Z,615.00
2023-05-16T09:54:21.138Z,686.00
2023-05-16T09:55:21.237Z,754.00
2023-05-16T09:56:21.267Z,741.00
2023-05-16T09:57:21.310Z,761.00
2023-05-16T09:58:21.382Z,794.00
2023-05-16T09:59:21.553Z,830.00
2023-05-16T10:00:21.458Z,866.00
2023-05-16T10:01:21.559Z,860.00
2023-05-16T10:02:21.618Z,856.00
2023-05-16T10:03:21.770Z,833.00
2023-05-16T10:04:21.738Z,836.00
2023-05-16T10:05:21.689Z,887.00
2023-05-16T10:06:21.755Z,926.00
2023-05-16T10:07:21.777Z,941.00
2023-05-16T10:08:21.808Z,938.00
2023-05-16T10:09:21.856Z,967.00
2023-05-16T10:10:21.888Z,997.00
2023-05-16T10:11:21.922Z,1062.00
2023-05-16T10:12:21.951Z,1020.00
2023-05-16T10:13:22.024Z,1024.00
2023-05-16T10:14:22.025Z,1075.00
2023-05-16T10:15:22.060Z,1034.00
2023-05-16T10:16:22.165Z,1135.00
2023-05-16T10:17:22.110Z,1186.00
2023-05-16T10:18:22.146Z,1188.00
2023-05-16T10:19:22.357Z,1212.00
2023-05-16T10:20:22.193Z,1254.00
2023-05-16T10:21:22.256Z,1192.00
2023-05-16T10:22:22.266Z,1197.00
2023-05-16T10:23:22.304Z,1221.00
2023-05-16T10:24:22.324Z,1290.00
2023-05-16T10:25:22.329Z,1357.00
2023-05-16T10:26:22.657Z,1356.00
2023-05-16T10:27:22.404Z,1424.00
2023-05-16T10:28:22.435Z,1494.00
2023-05-16T10:29:22.488Z,1500.00
2023-05-16T10:30:22.488Z,1547.00
2023-05-16T10:31:22.791Z,1560.00
2023-05-16T10:32:22.645Z,1550.00
2023-05-16T10:33:22.626Z,1556.00
2023-05-16T10:34:22.657Z,1537.00
2023-05-16T10:35:23.253Z,1515.00
2023-05-16T10:36:22.667Z,1475.00
2023-05-16T10:37:22.635Z,1556.00
2023-05-16T10:38:22.692Z,1575.00
2023-05-16T10:39:22.739Z,1538.00
2023-05-16T10:40:22.692Z,1464.00
2023-05-16T10:41:22.774Z,1409.00
2023-05-16T10:42:22.736Z,1338.00
2023-05-16T10:43:22.787Z,1299.00
2023-05-16T10:44:22.826Z,1285.00
2023-05-16T10:45:22.856Z,1215.00
2023-05-16T10:46:22.934Z,1128.00
2023-05-16T10:47:22.928Z,1046.00
2023-05-16T10:48:23.051Z,984.00
2023-05-16T10:49:23.066Z,965.00
2023-05-16T10:50:23.095Z,857.00
2023-05-16T10:51:23.139Z,897.00
2023-05-16T10:52:23.175Z,865.00
2023-05-16T10:53:23.235Z,824.00
2023-05-16T10:54:23.276Z,845.00
2023-05-16T10:55:23.336Z,849.00
2023-05-16T10:56:23.424Z,816.00
2023-05-16T10:57:23.456Z,826.00
2023-05-16T10:58:23.524Z,797.00
2023-05-16T10:59:23.570Z,788.00
2023-05-16T11:00:23.637Z,779.00
2023-05-16T11:01:23.791Z,854.00
2023-05-16T11:02:23.846Z,857.00
2023-05-16T11:03:23.898Z,801.00
2023-05-16T11:04:23.891Z,746.00
2023-05-16T11:05:23.942Z,714.00
2023-05-16T11:06:25.036Z,662.00
2023-05-16T11:07:24.082Z,640.00
2023-05-16T11:08:24.088Z,628.00
2023-05-16T11:09:24.186Z,626.00
2023-05-16T11:10:24.197Z,647.00
2023-05-16T11:11:24.284Z,637.00
2023-05-16T11:12:24.331Z,645.00
2023-05-16T11:13:24.372Z,652.00
2023-05-16T11:14:24.418Z,643.00
2023-05-16T11:15:24.579Z,629.00
2023-05-16T11:16:24.581Z,608.00
2023-05-16T11:17:24.824Z,603.00
2023-05-16T11:18:24.705Z,664.00
2023-05-16T11:19:24.744Z,858.00
2023-05-16T11:20:24.770Z,917.00
2023-05-16T11:21:24.804Z,1065.00
2023-05-16T11:22:24.870Z,1132.00
2023-05-16T11:23:24.917Z,1048.00
2023-05-16T11:24:24.925Z,1062.00
2023-05-16T11:25:25.063Z,1109.00
2023-05-16T11:26:24.996Z,1106.00
2023-05-16T11:27:25.033Z,1030.00
2023-05-16T11:28:25.076Z,1051.00
2023-05-16T11:29:25.132Z,1109.00
2023-05-16T11:30:25.119Z,1099.00
2023-05-16T11:31:25.226Z,1077.00
2023-05-16T11:32:25.263Z,1063.00
2023-05-16T11:33:25.245Z,1129.00
2023-05-16T11:34:25.273Z,1163.00
2023-05-16T11:35:25.338Z,1165.00
2023-05-16T11:36:25.351Z,1185.00
2023-05-16T11:37:25.402Z,1125.00
2023-05-16T11:38:25.446Z,1116.00
2023-05-16T11:39:25.534Z,1103.00
2023-05-16T11:40:25.513Z,1206.00
2023-05-16T11:41:25.617Z,1235.00
2023-05-16T11:42:25.651Z,1171.00
2023-05-16T11:43:25.660Z,1240.00
2023-05-16T11:44:25.703Z,1201.00
2023-05-16T11:45:25.868Z,1251.00
2023-05-16T11:46:26.110Z,1176.00
2023-05-16T11:47:25.854Z,1158.00
2023-05-16T11:48:35.825Z,1119.00
2023-05-16T11:49:26.898Z,1121.00
2023-05-16T11:50:25.861Z,1119.00
2023-05-16T11:51:26.132Z,1098.00
2023-05-16T11:52:25.866Z,1056.00
2023-05-16T11:53:25.852Z,1030.00
2023-05-16T11:54:25.827Z,931.00
2023-05-16T11:55:40.407Z,985.00
2023-05-16T11:56:26.853Z,977.00
2023-05-16T11:57:25.836Z,942.00
2023-05-16T11:58:25.799Z,907.00
2023-05-16T11:59:25.813Z,875.00
2023-05-16T12:00:25.802Z,991.00
2023-05-16T12:01:25.791Z,976.00
2023-05-16T12:02:25.927Z,1013.00
2023-05-16T12:03:25.848Z,964.00
2023-05-16T12:04:25.889Z,960.00
2023-05-16T12:05:25.857Z,891.00
2023-05-16T12:06:25.785Z,848.00
2023-05-16T12:07:25.987Z,897.00
2023-05-16T12:08:25.900Z,973.00
2023-05-16T12:09:25.934Z,888.00
2023-05-16T12:10:26.051Z,879.00
2023-05-16T12:11:26.106Z,837.00
2023-05-16T12:12:26.089Z,792.00
2023-05-16T12:13:26.096Z,754.00
2023-05-16T12:14:26.211Z,815.00
2023-05-16T12:15:26.490Z,834.00
2023-05-16T12:16:26.290Z,798.00
2023-05-16T12:17:26.299Z,818.00
2023-05-16T12:18:26.352Z,755.00
2023-05-16T12:19:26.478Z,778.00
2023-05-16T12:20:26.443Z,834.00
2023-05-16T12:21:26.456Z,1038.00
2023-05-16T12:22:26.481Z,915.00
2023-05-16T12:23:26.529Z,987.00
2023-05-16T12:24:27.836Z,1068.00